Time;durP1;ratioP1;P1;durP2;ratioP2;P2;SDS_P1;SDS_P2;PMS_P1;PMS_P2;Temp;Humidity;BMP_temperature;BMP_pressure;BME280_temperature;BME280_humidity;BME280_pressure;Samples;Min_cycle;Max_cycle;Signal;HPM_P1;HPM_P2
2023/10/02 00:05:07;;;;;;;8.57;3.15;;;;;;;18.99;100.00;101382.38;5079752;28;20083;-71
2023/10/02 00:07:34;;;;;;;7.47;3.15;;;;;;;19.02;100.00;101379.19;5061390;28;20051;-72
2023/10/02 00:10:01;;;;;;;10.85;3.22;;;;;;;18.96;100.00;101361.03;5078925;28;20024;-72
2023/10/02 00:12:28;;;;;;;10.20;3.10;;;;;;;18.93;100.00;101361.53;5078162;28;20035;-72
2023/10/02 00:14:55;;;;;;;7.63;3.45;;;;;;;18.97;100.00;101365.41;5078455;28;20028;-72
2023/10/02 00:17:23;;;;;;;11.07;3.13;;;;;;;19.04;100.00;101370.72;5056211;28;20054;-72
2023/10/02 00:19:57;;;;;;;7.13;3.17;;;;;;;19.03;100.00;101372.63;5061203;28;20031;-72
2023/10/02 00:22:35;;;;;;;7.85;3.65;;;;;;;18.94;100.00;101358.56;5079077;28;20039;-72
2023/10/02 00:25:03;;;;;;;7.97;3.53;;;;;;;19.03;100.00;101367.19;5064852;28;20036;-72
2023/10/02 00:27:29;;;;;;;7.90;3.65;;;;;;;19.02;100.00;101365.53;5079092;28;20029;-71
2023/10/02 00:29:58;;;;;;;8.82;3.60;;;;;;;18.99;100.00;101363.28;5078021;28;20503;-73
2023/10/02 00:32:29;;;;;;;9.10;4.00;;;;;;;18.97;100.00;101362.69;5078171;28;20028;-72
2023/10/02 00:34:55;;;;;;;8.20;4.00;;;;;;;19.01;100.00;101363.88;5078082;28;20051;-73
2023/10/02 00:37:20;;;;;;;6.75;3.42;;;;;;;19.02;100.00;101368.25;5077099;28;20035;-72
2023/10/02 00:39:52;;;;;;;9.48;4.15;;;;;;;19.02;100.00;101371.00;5079762;28;20037;-72
2023/10/02 00:42:24;;;;;;;14.52;4.20;;;;;;;19.00;100.00;101359.47;5078386;28;20029;-72
2023/10/02 00:45:01;;;;;;;8.32;3.85;;;;;;;19.00;100.00;101357.56;5083148;28;20451;-72
2023/10/02 00:50:10;;;;;;;13.82;4.40;;;;;;;19.02;100.00;101350.00;5083073;28;20056;-72
2023/10/02 00:52:40;;;;;;;13.05;4.60;;;;;;;18.94;100.00;101353.13;5082489;28;20079;-72
2023/10/02 00:55:11;;;;;;;10.05;5.00;;;;;;;18.98;100.00;101359.75;5082088;28;20040;-72
2023/10/02 00:57:38;;;;;;;12.27;5.05;;;;;;;18.93;100.00;101353.34;5081796;28;20052;-72
2023/10/02 01:00:53;;;;;;;12.18;4.68;;;;;;;18.89;100.00;101354.91;5082615;28;20043;-72
2023/10/02 01:02:59;;;;;;;11.88;4.90;;;;;;;18.91;100.00;101352.78;5075214;28;20039;-72
2023/10/02 01:05:31;;;;;;;10.50;4.90;;;;;;;18.94;100.00;101357.72;5079608;28;20031;-72
2023/10/02 01:07:58;;;;;;;14.50;5.00;;;;;;;18.92;100.00;101357.97;5082972;28;20020;-72
2023/10/02 01:10:29;;;;;;;11.52;5.38;;;;;;;18.93;100.00;101334.25;5075101;28;20045;-72
2023/10/02 01:13:06;;;;;;;11.88;4.97;;;;;;;18.97;100.00;101339.00;5060536;28;20034;-72
2023/10/02 01:15:32;;;;;;;12.90;5.38;;;;;;;19.05;100.00;101343.22;5081269;28;20055;-73
2023/10/02 01:20:48;;;;;;;13.68;4.95;;;;;;;19.10;100.00;101350.69;5081570;28;20042;-71
2023/10/02 01:23:23;;;;;;;17.35;5.82;;;;;;;19.07;100.00;101346.53;5081495;28;20467;-72
2023/10/02 01:25:49;;;;;;;16.88;5.53;;;;;;;19.06;100.00;101339.44;5082230;28;20039;-73
2023/10/02 01:28:16;;;;;;;15.38;5.50;;;;;;;19.11;100.00;101346.91;5082477;28;20040;-72
2023/10/02 01:30:47;;;;;;;15.98;5.80;;;;;;;19.12;100.00;101349.38;5083429;28;20403;-73
2023/10/02 01:33:17;;;;;;;15.75;6.30;;;;;;;19.09;100.00;101338.13;5076139;28;20029;-72
2023/10/02 01:35:50;;;;;;;15.43;6.30;;;;;;;19.11;100.00;101341.44;5079962;28;20112;-73
2023/10/02 01:38:29;;;;;;;14.18;6.47;;;;;;;19.07;100.00;101346.53;5079577;28;20493;-72
2023/10/02 01:41:16;;;;;;;16.80;6.85;;;;;;;19.09;100.00;101340.84;5086130;28;20025;-73
2023/10/02 01:43:49;;;;;;;17.30;7.88;;;;;;;18.98;100.00;101329.75;5090333;28;20029;-72
2023/10/02 01:46:18;;;;;;;19.08;8.00;;;;;;;19.05;100.00;101321.41;5091775;28;20462;-72
2023/10/02 01:48:45;;;;;;;17.52;7.95;;;;;;;19.06;100.00;101323.06;5090407;28;20096;-72
2023/10/02 01:51:20;;;;;;;21.08;8.63;;;;;;;19.05;100.00;101332.31;5089006;28;20146;-72
2023/10/02 01:54:15;;;;;;;20.33;9.05;;;;;;;19.09;100.00;101332.66;5089560;28;20039;-72
2023/10/02 01:56:52;;;;;;;15.57;7.55;;;;;;;19.06;100.00;101330.41;5061496;28;20068;-72
2023/10/02 01:59:21;;;;;;;20.23;7.97;;;;;;;19.03;100.00;101331.72;5020601;28;20049;-72
2023/10/02 02:01:52;;;;;;;19.30;6.93;;;;;;;19.05;100.00;101324.13;5053400;28;20048;-72
2023/10/02 02:04:21;;;;;;;15.90;6.75;;;;;;;18.97;100.00;101316.31;5040789;28;20021;-72
2023/10/02 02:06:57;;;;;;;10.48;5.72;;;;;;;19.01;100.00;101331.16;5055666;28;20053;-72
2023/10/02 02:09:30;;;;;;;11.82;5.95;;;;;;;19.05;100.00;101320.59;5057852;28;20037;-72
2023/10/02 02:12:05;;;;;;;13.15;5.80;;;;;;;18.97;100.00;101329.97;5058564;28;20140;-71
2023/10/02 02:14:32;;;;;;;14.57;5.60;;;;;;;18.99;100.00;101325.09;5059613;28;20096;-72
2023/10/02 02:16:57;;;;;;;10.68;5.40;;;;;;;18.96;100.00;101323.69;5043912;28;20051;-72
2023/10/02 02:19:23;;;;;;;10.30;4.90;;;;;;;18.95;100.00;101322.03;5037441;28;20028;-72
2023/10/02 02:21:49;;;;;;;16.08;5.30;;;;;;;18.91;100.00;101320.03;5039050;28;20072;-72
2023/10/02 02:24:16;;;;;;;14.98;5.13;;;;;;;18.92;100.00;101317.06;5042371;28;20029;-72
2023/10/02 02:26:41;;;;;;;11.98;4.55;;;;;;;18.97;100.00;101319.91;5026241;28;20071;-72
2023/10/02 02:29:26;;;;;;;11.95;4.80;;;;;;;18.86;100.00;101298.94;5047866;28;20467;-73
2023/10/02 02:31:53;;;;;;;12.43;5.00;;;;;;;18.99;100.00;101314.19;5057305;28;20032;-73
2023/10/02 02:34:20;;;;;;;13.98;4.90;;;;;;;18.98;100.00;101310.66;5069026;28;20434;-73
2023/10/02 02:36:49;;;;;;;13.27;4.93;;;;;;;18.98;100.00;101316.09;5063991;28;20024;-72
2023/10/02 02:39:17;;;;;;;13.32;5.35;;;;;;;19.04;100.00;101311.59;5063790;28;20104;-72
2023/10/02 02:42:08;;;;;;;12.70;4.57;;;;;;;19.09;100.00;101308.94;5064273;28;20048;-72
2023/10/02 02:44:43;;;;;;;15.55;5.38;;;;;;;19.09;100.00;101317.13;5081745;28;20024;-72
2023/10/02 02:47:20;;;;;;;11.48;4.97;;;;;;;19.05;100.00;101310.50;5081305;28;20020;-72
2023/10/02 02:49:51;;;;;;;14.63;4.63;;;;;;;19.12;100.00;101313.09;5066730;28;20044;-72
2023/10/02 02:52:19;;;;;;;11.30;4.88;;;;;;;19.15;100.00;101324.34;5056046;28;20025;-72
2023/10/02 02:54:47;;;;;;;13.30;5.05;;;;;;;19.09;100.00;101322.56;5079029;28;20037;-72
2023/10/02 02:57:25;;;;;;;12.77;5.22;;;;;;;19.11;100.00;101316.91;5070935;28;20024;-72
2023/10/02 03:00:24;;;;;;;14.98;4.80;;;;;;;19.12;100.00;101313.09;5080528;28;20028;-71
2023/10/02 03:02:44;;;;;;;11.60;4.70;;;;;;;19.05;100.00;101290.59;5064204;28;20032;-72
2023/10/02 03:05:11;;;;;;;11.15;4.85;;;;;;;19.13;100.00;101307.38;5082890;28;20024;-72
2023/10/02 03:07:39;;;;;;;9.55;4.47;;;;;;;19.16;100.00;101304.16;5045091;28;20056;-71
2023/10/02 03:10:12;;;;;;;11.27;3.83;;;;;;;19.18;100.00;101312.13;5059292;28;20119;-72
2023/10/02 03:12:50;;;;;;;10.85;4.10;;;;;;;19.12;100.00;101297.53;5046624;28;20024;-72
2023/10/02 03:15:19;;;;;;;8.57;3.80;;;;;;;19.17;100.00;101296.78;5062388;28;20029;-72
2023/10/02 03:17:50;;;;;;;10.80;4.43;;;;;;;19.15;100.00;101294.31;5062333;28;20028;-72
2023/10/02 03:20:22;;;;;;;12.25;4.20;;;;;;;19.04;100.00;101276.13;5061327;28;20052;-72
2023/10/02 03:22:55;;;;;;;8.82;3.75;;;;;;;18.84;100.00;101243.84;5064645;28;20025;-71
2023/10/02 03:25:28;;;;;;;8.38;4.40;;;;;;;19.15;100.00;101290.78;5065538;28;20029;-72
2023/10/02 03:27:55;;;;;;;11.43;4.20;;;;;;;19.18;100.00;101288.38;5067808;28;20029;-72
2023/10/02 03:30:38;;;;;;;9.68;3.67;;;;;;;19.13;100.00;101291.00;5063846;28;20047;-72
2023/10/02 03:33:17;;;;;;;6.50;3.42;;;;;;;19.11;100.00;101273.25;5082956;28;20045;-72
2023/10/02 03:36:24;;;;;;;8.73;3.80;;;;;;;19.18;100.00;101277.47;5072430;28;20036;-72
2023/10/02 03:38:43;;;;;;;10.13;3.13;;;;;;;19.11;100.00;101284.16;5084002;28;20462;-72
2023/10/02 03:41:13;;;;;;;7.35;3.38;;;;;;;19.15;100.00;101271.69;5051046;28;20028;-72
2023/10/02 03:43:43;;;;;;;7.63;2.95;;;;;;;19.14;100.00;101279.03;5046352;28;20028;-71
2023/10/02 03:46:15;;;;;;;8.95;3.20;;;;;;;18.94;100.00;101265.00;5082992;28;20463;-72
2023/10/02 03:48:41;;;;;;;8.57;3.13;;;;;;;19.08;100.00;101281.91;5064657;28;20035;-71
2023/10/02 03:51:08;;;;;;;7.97;3.05;;;;;;;19.01;100.00;101276.63;5067218;28;20028;-72
2023/10/02 03:53:35;;;;;;;9.52;3.13;;;;;;;19.07;100.00;101280.25;5080089;28;20097;-72
2023/10/02 03:58:51;;;;;;;8.82;3.50;;;;;;;19.04;100.00;101278.84;5083918;28;20081;-73
2023/10/02 04:01:29;;;;;;;8.43;3.30;;;;;;;19.04;100.00;101278.00;5087142;28;20025;-72
2023/10/02 04:04:19;;;;;;;8.30;3.30;;;;;;;19.06;100.00;101282.16;5063695;28;20054;-73
2023/10/02 04:06:53;;;;;;;6.60;3.35;;;;;;;19.06;100.00;101281.31;5083457;28;20048;-72
2023/10/02 04:09:25;;;;;;;6.22;2.65;;;;;;;19.06;100.00;101276.69;5062199;28;20036;-72
2023/10/02 04:11:52;;;;;;;6.47;2.47;;;;;;;19.00;100.00;101259.41;5081879;28;20024;-73
2023/10/02 04:14:31;;;;;;;3.65;1.92;;;;;;;19.01;100.00;101271.16;5081231;28;20387;-72
2023/10/02 04:22:25;;;;;;;6.20;2.30;;;;;;;18.93;100.00;101275.09;5079805;28;20479;-72
2023/10/02 04:24:54;;;;;;;5.97;2.17;;;;;;;18.95;100.00;101266.66;5080259;28;20016;-72
2023/10/02 04:28:00;;;;;;;5.80;2.35;;;;;;;18.83;100.00;101249.53;5080842;28;20071;-72
2023/10/02 04:33:08;;;;;;;6.75;2.55;;;;;;;18.96;100.00;101265.59;5092897;28;20019;-72
2023/10/02 04:35:45;;;;;;;5.80;2.35;;;;;;;18.95;100.00;101272.13;5091745;28;20020;-72
2023/10/02 04:38:14;;;;;;;6.38;2.45;;;;;;;18.87;100.00;101264.31;5070248;28;20092;-73
2023/10/02 04:40:51;;;;;;;7.03;2.38;;;;;;;18.91;100.00;101268.25;5035645;28;20033;-74
2023/10/02 04:43:23;;;;;;;5.32;2.50;;;;;;;18.96;100.00;101271.03;5064385;28;20023;-73
2023/10/02 04:45:53;;;;;;;9.30;2.72;;;;;;;18.96;100.00;101262.88;5043276;28;20035;-73
2023/10/02 04:48:38;;;;;;;8.35;3.13;;;;;;;18.99;100.00;101268.66;5060929;28;20040;-73
2023/10/02 04:51:07;;;;;;;10.05;3.10;;;;;;;19.00;100.00;101269.47;5057803;28;20116;-73
2023/10/02 04:53:35;;;;;;;9.00;2.40;;;;;;;18.92;100.00;101267.16;5060333;28;20017;-73
2023/10/02 04:56:07;;;;;;;6.80;2.72;;;;;;;18.93;100.00;101266.91;5059368;28;20052;-73
2023/10/02 04:58:39;;;;;;;10.98;2.85;;;;;;;18.97;100.00;101262.63;5076998;28;20028;-73
2023/10/02 05:03:53;;;;;;;9.55;2.67;;;;;;;18.88;100.00;101236.00;5078889;28;20052;-73
2023/10/02 05:06:43;;;;;;;8.13;2.40;;;;;;;18.96;100.00;101262.88;5059270;28;20109;-73
2023/10/02 05:09:19;;;;;;;9.05;2.80;;;;;;;19.01;100.00;101260.25;5078207;28;20434;-74
2023/10/02 05:12:03;;;;;;;9.30;2.45;;;;;;;18.98;100.00;101266.19;5062224;28;20435;-72
2023/10/02 05:14:32;;;;;;;9.40;2.60;;;;;;;18.99;100.00;101263.19;5077013;28;20483;-73
2023/10/02 05:20:04;;;;;;;7.78;2.63;;;;;;;18.92;100.00;101254.34;5062973;28;20089;-73
2023/10/02 05:22:31;;;;;;;8.63;2.50;;;;;;;19.00;100.00;101266.75;5051057;28;20075;-73
2023/10/02 05:24:58;;;;;;;11.30;3.38;;;;;;;19.04;100.00;101257.03;5045384;28;20100;-73
2023/10/02 05:27:43;;;;;;;9.20;3.20;;;;;;;19.05;100.00;101264.13;5079156;28;20047;-72
2023/10/02 05:30:12;;;;;;;7.70;2.92;;;;;;;19.00;100.00;101272.22;5061363;28;20033;-72
2023/10/02 05:32:39;;;;;;;7.93;2.90;;;;;;;18.96;100.00;101274.59;5078258;28;20036;-72
2023/10/02 05:35:23;;;;;;;7.90;2.80;;;;;;;19.08;100.00;101276.47;5079080;28;20016;-72
2023/10/02 05:37:51;;;;;;;8.00;2.80;;;;;;;19.11;100.00;101275.97;5043305;28;20031;-72
2023/10/02 05:45:47;;;;;;;7.07;3.08;;;;;;;19.13;100.00;101262.91;5077114;28;20028;-73
2023/10/02 05:48:31;;;;;;;6.63;2.40;;;;;;;19.18;100.00;101263.00;5062505;28;20035;-73
2023/10/02 05:50:59;;;;;;;11.40;2.90;;;;;;;19.19;100.00;101256.47;5067612;28;20495;-72
2023/10/02 05:53:26;;;;;;;5.43;2.38;;;;;;;19.21;100.00;101262.53;5043748;28;20104;-73
2023/10/02 05:58:37;;;;;;;10.77;2.90;;;;;;;19.27;100.00;101268.88;5077587;28;20024;-73
2023/10/02 06:01:06;;;;;;;8.07;2.70;;;;;;;19.30;100.00;101274.66;5079863;28;20025;-73
2023/10/02 06:03:36;;;;;;;9.95;2.80;;;;;;;19.30;100.00;101269.22;5061795;28;20073;-73
2023/10/02 06:06:23;;;;;;;7.90;2.95;;;;;;;19.30;100.00;101261.03;5061687;28;20534;-73
2023/10/02 06:08:56;;;;;;;8.90;2.88;;;;;;;19.36;100.00;101264.69;5063411;28;20067;-72
2023/10/02 06:11:26;;;;;;;8.60;2.70;;;;;;;19.24;100.00;101254.66;5077146;28;20028;-72
2023/10/02 06:14:09;;;;;;;10.13;2.60;;;;;;;19.39;100.00;101273.19;5066361;28;20035;-72
2023/10/02 06:16:36;;;;;;;10.05;2.70;;;;;;;19.40;100.00;101272.16;5075251;28;20036;-72
2023/10/02 06:19:01;;;;;;;7.15;2.53;;;;;;;19.35;100.00;101265.75;5094013;28;20028;-72
2023/10/02 06:21:31;;;;;;;12.43;2.97;;;;;;;19.34;100.00;101278.59;5089263;28;20039;-71
2023/10/02 06:23:58;;;;;;;8.90;2.70;;;;;;;19.42;100.00;101288.25;5069626;28;20020;-72
2023/10/02 06:26:26;;;;;;;9.98;3.10;;;;;;;19.40;100.00;101279.47;5065201;28;20028;-72
2023/10/02 06:29:13;;;;;;;9.65;3.20;;;;;;;19.47;100.00;101285.63;5082080;28;20027;-72
2023/10/02 06:31:41;;;;;;;8.02;2.92;;;;;;;19.51;100.00;101291.44;5080785;28;20040;-72
2023/10/02 06:34:11;;;;;;;8.43;3.15;;;;;;;19.52;100.00;101293.88;5063705;28;20024;-72
2023/10/02 06:36:45;;;;;;;9.65;3.05;;;;;;;19.46;100.00;101275.75;5080783;28;20343;-72
2023/10/02 06:39:14;;;;;;;7.38;3.00;;;;;;;19.55;100.00;101293.41;5030138;28;20024;-72
2023/10/02 06:41:40;;;;;;;8.55;2.97;;;;;;;19.49;100.00;101280.75;5078650;28;20024;-72
2023/10/02 06:44:14;;;;;;;8.85;3.05;;;;;;;19.50;100.00;101282.38;5079103;28;20554;-71
2023/10/02 06:46:53;;;;;;;10.45;3.47;;;;;;;19.52;100.00;101288.44;5046864;28;20403;-72
2023/10/02 06:49:20;;;;;;;9.77;3.58;;;;;;;19.66;100.00;101292.50;5080221;28;20025;-71
2023/10/02 06:51:49;;;;;;;7.43;2.70;;;;;;;19.74;100.00;101301.41;5079628;28;20470;-71
2023/10/02 06:54:17;;;;;;;10.57;3.45;;;;;;;19.78;100.00;101297.09;5043876;28;20137;-72
2023/10/02 06:56:43;;;;;;;10.50;3.53;;;;;;;19.84;100.00;101290.63;5061513;28;20062;-72
2023/10/02 06:59:09;;;;;;;9.63;3.33;;;;;;;19.92;100.00;101282.00;5079569;28;20381;-72
2023/10/02 07:01:35;;;;;;;9.82;3.70;;;;;;;20.04;100.00;101288.22;5061024;28;20043;-73
2023/10/02 07:04:09;;;;;;;10.65;3.20;;;;;;;20.04;100.00;101288.22;5077363;28;20107;-72
2023/10/02 07:06:40;;;;;;;8.13;3.40;;;;;;;20.15;100.00;101300.94;5039315;28;20052;-72
2023/10/02 07:09:13;;;;;;;12.05;3.20;;;;;;;20.14;100.00;101298.47;5078927;28;20092;-73
2023/10/02 07:11:42;;;;;;;10.80;3.25;;;;;;;20.12;100.00;101295.16;5076430;28;20026;-71
2023/10/02 07:14:09;;;;;;;12.00;3.33;;;;;;;20.09;100.00;101298.38;5075112;28;20043;-72
2023/10/02 07:16:36;;;;;;;11.88;3.58;;;;;;;20.15;100.00;101300.13;5062592;28;20020;-72
2023/10/02 07:19:04;;;;;;;10.75;3.22;;;;;;;20.11;100.00;101290.78;5081706;28;20024;-72
2023/10/02 07:21:30;;;;;;;9.25;3.40;;;;;;;20.22;100.00;101302.66;5063969;28;20028;-72
2023/10/02 07:24:03;;;;;;;13.43;3.30;;;;;;;20.31;100.00;101303.91;5080702;28;20027;-72
2023/10/02 07:29:12;;;;;;;7.65;3.20;;;;;;;20.49;100.00;101305.50;5081193;28;20031;-72
2023/10/02 07:31:39;;;;;;;13.40;3.58;;;;;;;20.32;100.00;101272.75;5063595;28;20041;-73
2023/10/02 07:34:09;;;;;;;8.00;3.17;;;;;;;20.54;100.00;101297.41;5081127;28;20024;-72
2023/10/02 07:36:44;;;;;;;12.05;3.30;;;;;;;20.67;100.00;101294.28;5063470;28;20052;-72
2023/10/02 07:39:35;;;;;;;11.70;3.63;;;;;;;20.68;100.00;101285.00;5062487;28;20526;-72
2023/10/02 07:42:00;;;;;;;8.38;3.35;;;;;;;20.76;100.00;101287.31;5080703;28;20020;-72
2023/10/02 07:44:36;;;;;;;12.40;3.95;;;;;;;20.73;100.00;101285.06;5080601;28;20103;-72
2023/10/02 07:47:16;;;;;;;9.88;4.13;;;;;;;20.80;100.00;101290.34;5061374;28;20024;-72
2023/10/02 07:49:46;;;;;;;8.65;3.60;;;;;;;20.75;100.00;101301.22;5031693;28;20028;-72
2023/10/02 07:52:26;;;;;;;8.93;3.15;;;;;;;20.73;100.00;101297.91;5062029;28;20108;-72
2023/10/02 07:54:58;;;;;;;9.20;3.45;;;;;;;20.75;100.00;101291.09;5079150;28;20028;-72
2023/10/02 07:57:30;;;;;;;11.68;3.65;;;;;;;20.78;100.00;101306.19;5080624;28;20034;-72
2023/10/02 07:59:57;;;;;;;9.52;3.53;;;;;;;20.69;100.00;101280.34;5081670;28;20025;-73
2023/10/02 08:02:28;;;;;;;10.70;3.22;;;;;;;20.84;100.00;101305.16;5062638;28;20031;-72
2023/10/02 08:04:53;;;;;;;13.65;3.60;;;;;;;20.86;100.00;101308.44;5038614;28;20028;-72
2023/10/02 08:07:19;;;;;;;8.45;3.67;;;;;;;20.86;100.00;101287.41;5062613;28;20102;-72
2023/10/02 08:09:48;;;;;;;11.75;3.53;;;;;;;20.91;100.00;101289.38;5047576;28;20048;-72
2023/10/02 08:12:29;;;;;;;9.43;3.25;;;;;;;20.91;100.00;101286.63;5081149;28;20058;-72
2023/10/02 08:14:59;;;;;;;9.02;3.67;;;;;;;20.72;100.00;101296.25;5042133;28;20025;-72
2023/10/02 08:17:35;;;;;;;9.77;4.03;;;;;;;20.78;100.00;101290.59;5075460;28;20051;-71
2023/10/02 08:20:15;;;;;;;12.77;4.13;;;;;;;20.85;100.00;101287.66;5076213;28;20071;-72
2023/10/02 08:22:45;;;;;;;9.38;3.45;;;;;;;21.00;100.00;101287.84;5079760;28;20335;-72
2023/10/02 08:25:14;;;;;;;12.73;4.07;;;;;;;20.97;100.00;101288.34;5061669;28;20113;-71
2023/10/02 08:27:55;;;;;;;8.38;3.50;;;;;;;21.13;100.00;101288.53;5047277;28;20054;-72
2023/10/02 08:30:31;;;;;;;14.18;4.38;;;;;;;21.10;100.00;101287.13;5062907;28;20032;-72
2023/10/02 08:33:09;;;;;;;9.98;3.60;;;;;;;21.08;100.00;101281.06;5081565;28;20473;-73
2023/10/02 08:35:41;;;;;;;11.52;3.90;;;;;;;21.08;100.00;101289.28;5080761;28;20028;-72
2023/10/02 08:38:07;;;;;;;11.00;3.47;;;;;;;20.99;100.00;101291.66;5080256;28;20539;-72
2023/10/02 08:40:33;;;;;;;12.57;3.88;;;;;;;20.94;100.00;101286.13;5063504;28;20052;-72
2023/10/02 08:42:59;;;;;;;13.98;3.38;;;;;;;21.13;100.00;101294.00;5062266;28;20035;-73
2023/10/02 08:45:26;;;;;;;8.43;3.22;;;;;;;21.20;100.00;101298.19;5062619;28;20033;-72
2023/10/02 08:47:52;;;;;;;10.55;3.17;;;;;;;21.24;100.00;101298.47;5056300;28;20025;-72
2023/10/02 08:50:18;;;;;;;9.95;3.75;;;;;;;21.13;100.00;101296.75;5042733;28;20036;-72
2023/10/02 08:52:50;;;;;;;12.25;3.40;;;;;;;21.03;100.00;101291.97;5080714;28;20165;-72
2023/10/02 08:55:51;;;;;;;11.30;3.50;;;;;;;21.06;100.00;101297.75;5080310;28;20572;-72
2023/10/02 08:58:20;;;;;;;10.50;2.97;;;;;;;21.14;100.00;101296.47;5078572;28;20024;-73
2023/10/02 09:04:21;;;;;;;13.07;3.70;;;;;;;21.24;100.00;101299.31;5079134;28;20029;-72
2023/10/02 09:06:43;;;;;;;10.15;3.83;;;;;;;21.32;99.85;101295.25;5079837;28;20427;-72
2023/10/02 09:09:23;;;;;;;12.20;3.92;;;;;;;21.39;99.18;101295.94;5080824;28;20086;-72
2023/10/02 09:11:53;;;;;;;9.35;3.42;;;;;;;21.33;99.02;101292.28;5062635;28;20029;-72
2023/10/02 09:16:47;;;;;;;10.45;3.30;;;;;;;21.30;98.26;101295.53;5080586;28;20032;-72
2023/10/02 09:19:31;;;;;;;7.28;3.10;;;;;;;21.24;97.82;101296.56;5059435;28;20042;-72
2023/10/02 09:22:07;;;;;;;9.13;3.33;;;;;;;21.23;97.78;101299.56;5062975;28;20090;-72
2023/10/02 09:24:42;;;;;;;12.30;3.78;;;;;;;21.24;97.42;101299.31;5047613;28;20042;-72
2023/10/02 09:27:25;;;;;;;14.02;4.05;;;;;;;21.30;97.12;101295.53;5080943;28;20454;-72
2023/10/02 09:32:49;;;;;;;9.50;3.58;;;;;;;21.31;95.91;101288.16;5081094;28;20043;-73
2023/10/02 09:38:10;;;;;;;7.88;2.72;;;;;;;21.27;96.57;101273.34;5082284;28;20437;-72
2023/10/02 09:41:02;;;;;;;10.02;3.50;;;;;;;21.30;96.28;101287.31;5064293;28;20028;-72
2023/10/02 09:43:36;;;;;;;9.32;3.42;;;;;;;21.25;96.56;101294.66;5064221;28;20481;-73
2023/10/02 09:46:06;;;;;;;10.75;3.30;;;;;;;21.25;95.81;101279.06;5065846;28;20025;-73
2023/10/02 09:51:27;;;;;;;10.63;3.13;;;;;;;21.43;95.08;101277.91;5080654;28;20552;-73
2023/10/02 09:54:14;;;;;;;8.65;3.35;;;;;;;21.41;94.94;101292.94;5063966;28;20024;-72
2023/10/02 09:56:52;;;;;;;11.60;3.72;;;;;;;21.35;94.75;101294.78;5064683;28;20051;-72
2023/10/02 09:59:22;;;;;;;13.40;3.72;;;;;;;21.22;94.96;101293.25;5092899;28;20068;-73
2023/10/02 10:02:07;;;;;;;10.38;3.20;;;;;;;21.38;95.10;101298.91;5066890;28;20078;-71
2023/10/02 10:10:46;;;;;;;11.10;3.55;;;;;;;21.32;95.71;101290.66;5087432;28;20032;-73
2023/10/02 10:13:32;;;;;;;11.10;3.47;;;;;;;21.33;95.54;101283.25;5093473;28;20025;-73
2023/10/02 10:16:18;;;;;;;9.75;3.80;;;;;;;21.35;95.53;101292.03;5071423;28;20029;-74
2023/10/02 10:22:03;;;;;;;9.98;3.08;;;;;;;21.38;94.81;101305.22;5094198;28;20016;-73
2023/10/02 10:24:51;;;;;;;14.00;3.58;;;;;;;21.57;94.03;101301.03;5075807;28;20020;-73
2023/10/02 10:27:42;;;;;;;10.10;3.45;;;;;;;21.60;94.16;101296.13;5094985;28;20076;-73
2023/10/02 10:30:22;;;;;;;9.77;3.42;;;;;;;21.58;93.58;101294.44;5095759;28;20021;-73
2023/10/02 10:35:35;;;;;;;10.13;3.47;;;;;;;21.47;91.89;101294.63;5095828;28;20028;-73
2023/10/02 10:38:07;;;;;;;8.75;3.17;;;;;;;21.40;91.58;101274.88;5077660;28;20033;-74
2023/10/02 10:40:46;;;;;;;9.25;3.40;;;;;;;21.57;91.44;101286.50;5095513;28;20039;-72
2023/10/02 10:43:14;;;;;;;10.88;3.50;;;;;;;21.65;91.91;101290.66;5077279;28;20021;-74
2023/10/02 10:45:40;;;;;;;11.38;3.15;;;;;;;21.66;91.98;101290.44;5075050;28;20401;-73
2023/10/02 10:48:19;;;;;;;12.57;3.60;;;;;;;21.61;91.66;101295.84;5066094;28;20029;-74
2023/10/02 10:50:59;;;;;;;9.95;3.05;;;;;;;21.54;91.61;101295.25;5092139;28;20479;-72
2023/10/02 10:53:32;;;;;;;9.52;3.30;;;;;;;21.43;91.59;101266.94;5076835;28;20013;-73
2023/10/02 10:56:17;;;;;;;8.57;3.20;;;;;;;21.53;91.22;101286.19;5077820;28;20110;-73
2023/10/02 10:58:46;;;;;;;10.00;3.78;;;;;;;21.75;90.58;101285.28;5096245;28;20260;-73
2023/10/02 11:01:21;;;;;;;10.02;3.20;;;;;;;21.89;90.25;101282.94;5041889;28;20032;-72
2023/10/02 11:03:59;;;;;;;10.23;3.42;;;;;;;22.03;90.19;101275.91;5070057;28;20028;-73
2023/10/02 11:06:24;;;;;;;9.63;3.60;;;;;;;22.01;89.09;101265.19;5058886;28;20067;-73
2023/10/02 11:09:12;;;;;;;9.95;3.67;;;;;;;22.07;88.46;101281.66;5069017;28;20036;-72
2023/10/02 11:11:50;;;;;;;11.55;3.63;;;;;;;22.18;87.40;101272.44;5055645;28;20032;-72
2023/10/02 11:14:22;;;;;;;11.40;3.80;;;;;;;22.20;87.82;101273.00;5068081;28;20032;-72
2023/10/02 11:16:54;;;;;;;12.25;3.55;;;;;;;22.33;86.81;101264.31;5077907;28;20068;-71
2023/10/02 11:19:26;;;;;;;11.50;3.50;;;;;;;22.36;86.10;101271.19;5077688;28;20048;-73
2023/10/02 11:22:14;;;;;;;9.27;3.10;;;;;;;22.34;85.49;101276.91;5077302;28;20020;-72
2023/10/02 11:25:02;;;;;;;11.73;3.55;;;;;;;22.50;84.77;101270.41;5073268;28;20020;-72
2023/10/02 11:27:29;;;;;;;11.82;3.50;;;;;;;22.52;84.41;101275.66;5064394;28;20046;-72
2023/10/02 11:30:01;;;;;;;9.63;3.30;;;;;;;22.49;84.76;101274.25;5085356;28;20056;-72
2023/10/02 11:32:58;;;;;;;12.95;3.30;;;;;;;22.58;84.54;101281.97;5074932;28;20039;-72
2023/10/02 11:35:37;;;;;;;10.80;3.38;;;;;;;22.32;84.06;101279.13;5094773;28;20028;-72
2023/10/02 11:38:04;;;;;;;10.02;3.20;;;;;;;22.19;84.08;101285.06;5094534;28;20025;-72
2023/10/02 11:40:30;;;;;;;10.30;3.70;;;;;;;22.31;84.63;101274.72;5052648;28;20028;-71
2023/10/02 11:42:59;;;;;;;14.00;4.03;;;;;;;22.35;83.96;101289.56;5067715;28;20035;-72
2023/10/02 11:45:28;;;;;;;10.73;3.50;;;;;;;22.42;84.38;101276.44;5088893;28;20025;-73
2023/10/02 11:47:54;;;;;;;7.60;3.15;;;;;;;22.10;83.12;101272.91;5071373;28;20062;-73
2023/10/02 11:50:20;;;;;;;11.82;3.53;;;;;;;22.10;83.64;101256.47;5102542;28;20028;-74
2023/10/02 11:52:47;;;;;;;9.90;3.40;;;;;;;22.07;83.58;101257.00;5056496;28;20020;-72
2023/10/02 11:55:17;;;;;;;9.25;2.72;;;;;;;22.01;84.24;101258.88;5066312;28;20039;-73
2023/10/02 11:57:43;;;;;;;8.88;2.80;;;;;;;22.09;84.17;101266.63;5084577;28;20521;-74
2023/10/02 12:00:12;;;;;;;10.55;2.92;;;;;;;22.14;83.74;101260.34;5092648;28;20054;-73
2023/10/02 12:02:39;;;;;;;6.50;2.60;;;;;;;22.14;83.30;101263.91;5065180;28;20032;-74
2023/10/02 12:05:07;;;;;;;10.45;3.33;;;;;;;22.25;82.73;101253.84;5051829;28;20027;-74
2023/10/02 12:07:33;;;;;;;9.93;2.92;;;;;;;22.10;83.02;101256.47;5047156;28;20056;-73
2023/10/02 12:09:58;;;;;;;9.05;3.25;;;;;;;22.23;82.47;101256.84;5078725;28;20020;-73
2023/10/02 12:12:25;;;;;;;12.23;3.30;;;;;;;22.24;81.73;101246.72;5090064;28;20017;-73
2023/10/02 12:14:51;;;;;;;8.55;3.40;;;;;;;22.29;81.68;101254.97;5085638;28;20520;-73
2023/10/02 12:17:17;;;;;;;7.85;3.55;;;;;;;22.21;82.35;101252.72;5100315;28;20061;-74
2023/10/02 12:19:44;;;;;;;11.75;3.30;;;;;;;22.19;82.48;101249.44;5082640;28;20079;-71
2023/10/02 12:22:09;;;;;;;8.23;2.97;;;;;;;22.15;81.75;101243.66;5072083;28;20438;-73
2023/10/02 12:24:36;;;;;;;9.63;3.50;;;;;;;22.15;82.05;101237.31;5071229;28;20020;-73
2023/10/02 12:27:04;;;;;;;7.18;3.10;;;;;;;22.05;81.25;101244.41;5090348;28;20036;-72
2023/10/02 12:29:32;;;;;;;8.93;3.60;;;;;;;22.07;80.84;101240.56;5074944;28;20096;-73
2023/10/02 12:32:00;;;;;;;7.50;3.00;;;;;;;21.98;80.92;101218.31;5075905;28;20074;-72
2023/10/02 12:34:27;;;;;;;9.75;3.22;;;;;;;21.99;80.08;101219.97;5090229;28;20029;-75
2023/10/02 12:36:53;;;;;;;8.18;3.10;;;;;;;22.05;79.72;101233.44;5085236;28;20403;-74
2023/10/02 12:39:19;;;;;;;8.50;3.05;;;;;;;21.87;79.40;101233.88;5075607;28;20011;-75
2023/10/02 12:41:45;;;;;;;9.05;2.97;;;;;;;21.95;79.70;101235.28;5083163;28;20032;-72